createdAt,value
2023-02-13T00:00:46.773Z,90.52
2023-02-13T00:03:14.683Z,90.95
2023-02-13T00:05:41.836Z,90.63
2023-02-13T00:08:08.882Z,90.46
2023-02-13T00:10:36.693Z,90.76
2023-02-13T00:13:03.793Z,90.73
2023-02-13T00:15:30.927Z,90.64
2023-02-13T00:17:57.940Z,90.91
2023-02-13T00:20:24.946Z,90.43
2023-02-13T00:22:51.969Z,90.94
2023-02-13T00:25:19.107Z,91.12
2023-02-13T00:27:46.181Z,90.83
2023-02-13T00:30:14.135Z,91.19
2023-02-13T00:32:41.129Z,90.81
2023-02-13T00:35:08.337Z,90.85
2023-02-13T00:37:35.404Z,90.72
2023-02-13T00:40:02.546Z,90.38
2023-02-13T00:42:29.570Z,90.49
2023-02-13T00:44:56.669Z,90.47
2023-02-13T00:47:23.819Z,90.37
2023-02-13T00:49:50.889Z,90.55
2023-02-13T00:52:17.942Z,90.75
2023-02-13T00:54:45.007Z,90.54
2023-02-13T00:57:11.989Z,90.47
2023-02-13T00:59:39.024Z,90.56
2023-02-13T01:02:06.014Z,90.26
2023-02-13T01:04:33.043Z,90.86
2023-02-13T01:07:00.117Z,91.23
2023-02-13T01:09:27.179Z,90.83
2023-02-13T01:11:54.258Z,91.17
2023-02-13T01:14:21.354Z,91.04
2023-02-13T01:16:48.396Z,90.85
2023-02-13T01:19:15.702Z,90.67
2023-02-13T01:21:44.161Z,90.95
2023-02-13T01:24:11.693Z,90.97
2023-02-13T01:26:39.259Z,90.65
2023-02-13T01:29:06.693Z,91.21
2023-02-13T01:31:34.388Z,91.35
2023-02-13T01:34:01.513Z,90.96
2023-02-13T01:36:28.586Z,91.39
2023-02-13T01:38:58.220Z,90.99
2023-02-13T01:41:27.382Z,90.39
2023-02-13T01:44:01.004Z,91.24
2023-02-13T01:50:39.256Z,91.04
2023-02-13T01:53:29.786Z,90.46
2023-02-13T01:56:29.017Z,90.47
2023-02-13T01:59:03.331Z,90.31
2023-02-13T02:01:32.590Z,90.71
2023-02-13T02:04:25.518Z,90.64
2023-02-13T02:07:07.009Z,90.83
2023-02-13T02:09:39.502Z,90.28
2023-02-13T02:12:18.128Z,90.64
2023-02-13T02:14:45.429Z,89.93
2023-02-13T02:17:12.877Z,89.53
2023-02-13T02:19:55.340Z,89.92
2023-02-13T02:23:28.751Z,89.46
2023-02-13T02:26:45.521Z,89.32
2023-02-13T02:33:00.925Z,89.09
2023-02-13T02:36:13.234Z,88.95
2023-02-13T02:39:06.697Z,89.55
2023-02-13T02:41:57.659Z,89.17
2023-02-13T02:45:05.728Z,89.25
2023-02-13T02:48:13.377Z,88.69
2023-02-13T02:50:59.136Z,88.72
2023-02-13T02:53:44.446Z,89.18
2023-02-13T02:56:31.848Z,88.75
2023-02-13T02:59:30.882Z,89.04
2023-02-13T03:02:17.700Z,89.98
2023-02-13T03:05:08.272Z,89.88
2023-02-13T03:07:35.261Z,89.44
2023-02-13T03:10:40.202Z,89.26
2023-02-13T03:13:23.785Z,88.98
2023-02-13T03:16:16.176Z,89.35
2023-02-13T03:19:09.121Z,89.09
2023-02-13T03:22:06.286Z,89.39
2023-02-13T03:25:12.348Z,89.33
2023-02-13T03:28:19.119Z,88.63
2023-02-13T03:30:57.927Z,89.16
2023-02-13T03:34:00.006Z,89.08
2023-02-13T03:37:08.312Z,89.17
2023-02-13T03:39:48.775Z,88.77
2023-02-13T03:42:42.411Z,89.19
2023-02-13T03:45:36.114Z,89.35
2023-02-13T03:48:27.617Z,89.12
2023-02-13T03:50:55.514Z,88.88
2023-02-13T03:53:24.532Z,89.25
2023-02-13T03:56:12.186Z,88.71
2023-02-13T03:59:07.212Z,88.89
2023-02-13T04:01:36.276Z,88.77
2023-02-13T04:04:11.572Z,89.17
2023-02-13T04:07:12.060Z,89.09
2023-02-13T04:09:42.773Z,89.14
2023-02-13T04:12:19.924Z,89.32
2023-02-13T04:15:02.330Z,89.03
2023-02-13T04:17:36.069Z,89.53
2023-02-13T04:20:03.802Z,89.65
2023-02-13T04:22:31.409Z,89.90
2023-02-13T04:24:58.470Z,89.68
2023-02-13T04:27:28.426Z,89.75
2023-02-13T04:29:55.427Z,89.62
2023-02-13T04:32:22.460Z,89.50
2023-02-13T04:34:49.455Z,89.86
2023-02-13T04:37:16.477Z,89.78
2023-02-13T04:39:43.478Z,89.33
2023-02-13T04:42:10.477Z,89.59
2023-02-13T04:44:37.472Z,89.24
2023-02-13T04:47:04.555Z,89.37
2023-02-13T04:49:31.554Z,89.76
2023-02-13T04:51:58.580Z,89.87
2023-02-13T04:54:25.607Z,89.83
2023-02-13T04:56:52.649Z,89.29
2023-02-13T04:59:19.660Z,89.49
2023-02-13T05:01:46.746Z,90.23
2023-02-13T05:04:16.385Z,90.55
2023-02-13T05:06:43.711Z,89.78
2023-02-13T05:09:11.205Z,89.87
2023-02-13T05:11:38.239Z,89.70
2023-02-13T05:14:05.288Z,89.88
2023-02-13T05:16:32.486Z,89.41
2023-02-13T05:18:59.560Z,89.33
2023-02-13T05:21:45.360Z,89.33
2023-02-13T05:24:12.416Z,88.93
2023-02-13T05:26:39.446Z,88.83
2023-02-13T05:29:23.005Z,89.21
2023-02-13T05:31:56.153Z,89.39
2023-02-13T05:34:25.600Z,89.92
2023-02-13T05:36:53.047Z,89.16
2023-02-13T05:39:20.555Z,89.23
2023-02-13T05:41:49.598Z,89.50
2023-02-13T05:44:17.343Z,89.27
2023-02-13T05:46:45.274Z,89.21
2023-02-13T05:49:14.496Z,88.82
2023-02-13T05:51:42.547Z,88.68
2023-02-13T05:54:09.748Z,89.28
2023-02-13T05:56:36.799Z,88.73
2023-02-13T05:59:04.667Z,88.70
2023-02-13T06:01:31.796Z,88.00
2023-02-13T06:04:00.051Z,88.67
2023-02-13T06:06:28.175Z,88.82
2023-02-13T06:08:55.261Z,88.69
2023-02-13T06:11:22.501Z,88.28
2023-02-13T06:13:49.524Z,88.26
2023-02-13T06:16:16.761Z,88.83
2023-02-13T06:18:44.038Z,88.34
2023-02-13T06:21:11.087Z,89.02
2023-02-13T06:23:38.191Z,89.13
2023-02-13T06:26:07.605Z,88.56
2023-02-13T06:28:35.207Z,88.31
2023-02-13T06:31:02.749Z,88.15
2023-02-13T06:33:30.045Z,88.13
2023-02-13T06:35:57.362Z,87.53
2023-02-13T06:38:24.502Z,87.88
2023-02-13T06:40:52.026Z,87.87
2023-02-13T06:43:19.368Z,88.08
2023-02-13T06:45:47.305Z,87.88
2023-02-13T06:48:14.998Z,88.02
2023-02-13T06:50:42.102Z,87.90
2023-02-13T06:53:09.136Z,87.07
2023-02-13T06:55:39.380Z,87.30
2023-02-13T06:58:06.678Z,87.09
2023-02-13T07:00:33.813Z,87.33
2023-02-13T07:03:06.538Z,87.32
2023-02-13T07:05:33.872Z,87.23
2023-02-13T07:08:00.866Z,87.02
2023-02-13T07:10:28.064Z,86.47
2023-02-13T07:13:05.270Z,86.32
2023-02-13T07:15:35.230Z,85.86
2023-02-13T07:18:02.891Z,86.64
2023-02-13T07:20:30.361Z,86.13
2023-02-13T07:23:06.390Z,85.81
2023-02-13T07:25:33.513Z,85.29
2023-02-13T07:28:06.174Z,84.38
2023-02-13T07:30:34.841Z,83.63
2023-02-13T07:33:04.615Z,79.34
2023-02-13T07:35:32.304Z,71.80
2023-02-13T07:38:00.838Z,72.38
2023-02-13T07:40:28.697Z,75.11
2023-02-13T07:42:56.766Z,76.98
2023-02-13T07:45:23.840Z,78.40
2023-02-13T07:47:50.905Z,78.68
2023-02-13T07:50:18.208Z,79.30
2023-02-13T07:52:45.189Z,80.45
2023-02-13T07:55:12.761Z,80.44
2023-02-13T07:57:39.791Z,80.52
2023-02-13T08:00:07.876Z,80.35
2023-02-13T08:02:34.955Z,81.43
2023-02-13T08:05:01.975Z,81.52
2023-02-13T08:07:28.961Z,81.93
2023-02-13T08:10:14.367Z,81.78
2023-02-13T08:12:41.812Z,81.82
2023-02-13T08:15:12.943Z,81.75
2023-02-13T08:17:39.980Z,82.39
2023-02-13T08:20:08.854Z,81.57
2023-02-13T08:22:40.061Z,81.45
2023-02-13T08:25:08.301Z,81.80
2023-02-13T08:27:35.553Z,81.73
2023-02-13T08:30:04.091Z,81.01
2023-02-13T08:32:35.416Z,79.64
2023-02-13T08:35:06.803Z,79.27
2023-02-13T08:37:34.141Z,78.63
2023-02-13T08:40:01.158Z,78.57
2023-02-13T08:42:28.247Z,78.36
2023-02-13T08:44:55.267Z,77.96
2023-02-13T08:47:22.282Z,77.70
2023-02-13T08:49:49.279Z,77.57
2023-02-13T08:52:16.327Z,77.42
2023-02-13T08:54:43.393Z,77.52
2023-02-13T08:57:10.435Z,77.62
2023-02-13T08:59:37.454Z,77.86
2023-02-13T09:02:04.497Z,77.87
2023-02-13T09:04:31.619Z,78.29
2023-02-13T09:06:58.599Z,78.21
2023-02-13T09:09:25.602Z,78.40
2023-02-13T09:11:53.982Z,78.15
2023-02-13T09:14:20.970Z,78.80
2023-02-13T09:16:47.962Z,78.88
2023-02-13T09:19:15.157Z,78.60
2023-02-13T09:21:42.179Z,78.25
2023-02-13T09:24:10.572Z,77.58
2023-02-13T09:26:37.631Z,78.42
2023-02-13T09:29:04.835Z,78.39
2023-02-13T09:31:32.010Z,78.61
2023-02-13T09:33:59.094Z,78.30
2023-02-13T09:36:26.189Z,78.81
2023-02-13T09:38:55.561Z,79.06
2023-02-13T09:41:31.990Z,78.71
2023-02-13T09:44:12.006Z,78.26
2023-02-13T09:46:41.257Z,77.86
2023-02-13T09:49:25.027Z,78.46
2023-02-13T09:51:56.930Z,78.85
2023-02-13T09:54:26.679Z,78.56
2023-02-13T09:57:25.484Z,78.28
2023-02-13T10:00:15.619Z,77.17
2023-02-13T10:03:11.813Z,77.57
2023-02-13T10:06:34.867Z,78.02
2023-02-13T10:09:11.657Z,77.16
2023-02-13T10:12:46.074Z,76.99
2023-02-13T10:16:02.278Z,77.50
2023-02-13T10:18:55.598Z,77.67
2023-02-13T10:21:30.779Z,78.19
2023-02-13T10:24:29.800Z,77.88
2023-02-13T10:27:01.249Z,78.67
2023-02-13T10:30:00.260Z,79.13
2023-02-13T10:33:11.257Z,78.84
2023-02-13T10:35:39.512Z,79.39
2023-02-13T10:38:23.457Z,79.83
2023-02-13T10:41:25.782Z,78.85
2023-02-13T10:44:10.933Z,78.41
2023-02-13T10:47:18.544Z,78.47
2023-02-13T10:50:32.026Z,78.57
2023-02-13T10:53:52.376Z,77.70
2023-02-13T10:56:44.964Z,77.72
2023-02-13T11:00:16.072Z,78.38
2023-02-13T11:02:43.197Z,78.06
2023-02-13T11:05:30.194Z,78.60
2023-02-13T11:07:59.038Z,78.63
2023-02-13T11:10:28.140Z,78.83
2023-02-13T11:12:55.856Z,78.63
2023-02-13T11:15:29.753Z,78.19
2023-02-13T11:18:19.885Z,78.01
2023-02-13T11:20:50.578Z,78.24
2023-02-13T11:23:38.674Z,78.29
2023-02-13T11:26:14.715Z,78.66
2023-02-13T11:28:52.386Z,78.85
2023-02-13T11:31:30.932Z,79.13
2023-02-13T11:34:00.401Z,78.62
2023-02-13T11:36:33.693Z,78.95
2023-02-13T11:39:17.935Z,78.61
2023-02-13T11:41:47.811Z,78.77
2023-02-13T11:44:32.251Z,79.49
2023-02-13T11:47:03.242Z,79.26
2023-02-13T11:49:41.814Z,79.53
2023-02-13T11:52:28.292Z,79.82
2023-02-13T11:55:06.641Z,79.72
2023-02-13T11:57:37.379Z,78.42
2023-02-13T12:00:37.658Z,78.71
2023-02-13T12:03:26.779Z,78.70
2023-02-13T12:06:15.606Z,78.93
2023-02-13T12:08:48.223Z,78.68
2023-02-13T12:11:39.179Z,77.36
2023-02-13T12:14:10.715Z,76.76
2023-02-13T12:16:50.906Z,76.15
2023-02-13T12:19:35.961Z,76.20
2023-02-13T12:22:34.936Z,75.82
2023-02-13T12:25:28.974Z,75.22
2023-02-13T12:28:52.683Z,75.32
2023-02-13T12:32:23.220Z,74.71
2023-02-13T12:35:18.773Z,75.18
2023-02-13T12:38:21.762Z,75.15
2023-02-13T12:41:14.507Z,75.82
2023-02-13T12:44:02.481Z,75.15
2023-02-13T12:47:04.540Z,75.11
2023-02-13T12:50:22.691Z,75.27
2023-02-13T12:53:03.045Z,75.65
2023-02-13T12:55:54.210Z,75.39
2023-02-13T12:59:00.597Z,75.29
2023-02-13T13:01:48.563Z,74.29
2023-02-13T13:04:37.445Z,74.07
2023-02-13T13:07:38.355Z,73.79
2023-02-13T13:10:17.105Z,72.91
2023-02-13T13:12:54.589Z,72.47
2023-02-13T13:16:02.804Z,71.87
2023-02-13T13:18:54.735Z,72.07
2023-02-13T13:21:53.052Z,72.27
2023-02-13T13:24:46.180Z,71.40
2023-02-13T13:27:28.484Z,71.25
2023-02-13T13:30:01.897Z,71.33
2023-02-13T13:32:31.142Z,71.68
2023-02-13T13:34:58.850Z,71.77
2023-02-13T13:37:43.130Z,71.40
2023-02-13T13:40:45.832Z,70.57
2023-02-13T13:43:33.198Z,73.49
2023-02-13T13:46:11.828Z,71.44
2023-02-13T13:48:57.107Z,69.40
2023-02-13T13:51:24.591Z,68.02
2023-02-13T13:54:03.684Z,66.90
2023-02-13T13:57:07.516Z,66.36
2023-02-13T13:59:34.472Z,66.84
2023-02-13T14:02:19.666Z,65.22
2023-02-13T14:05:32.208Z,63.72
2023-02-13T14:08:03.607Z,63.66
2023-02-13T14:10:30.630Z,64.88
2023-02-13T14:12:57.706Z,65.74
2023-02-13T14:15:44.790Z,65.85
2023-02-13T14:18:14.490Z,66.77
2023-02-13T14:20:59.527Z,67.24
2023-02-13T14:23:52.699Z,68.34
2023-02-13T14:26:35.999Z,67.62
2023-02-13T14:29:12.048Z,68.08
2023-02-13T14:31:43.491Z,68.23
2023-02-13T14:34:17.041Z,69.06
2023-02-13T14:37:00.932Z,69.81
2023-02-13T14:39:33.549Z,70.27
2023-02-13T14:42:03.523Z,70.03
2023-02-13T14:44:46.605Z,69.72
2023-02-13T14:47:42.789Z,69.50
2023-02-13T14:50:36.315Z,69.92
2023-02-13T14:53:16.345Z,70.35
2023-02-13T14:55:46.636Z,69.88
2023-02-13T14:58:35.673Z,70.34
2023-02-13T15:01:25.917Z,70.60
2023-02-13T15:04:10.683Z,70.93
2023-02-13T15:06:42.766Z,71.46
2023-02-13T15:09:22.393Z,70.87
2023-02-13T15:11:49.904Z,70.86
2023-02-13T15:14:33.586Z,71.06
2023-02-13T15:17:24.803Z,70.33
2023-02-13T15:19:56.132Z,71.20
2023-02-13T15:22:45.207Z,71.45
2023-02-13T15:25:37.152Z,71.56
2023-02-13T15:28:18.645Z,70.89
2023-02-13T15:31:01.862Z,71.57
2023-02-13T15:33:41.615Z,71.51
2023-02-13T15:36:23.870Z,70.95
2023-02-13T15:39:00.631Z,70.99
2023-02-13T15:41:43.770Z,70.67
2023-02-13T15:44:28.175Z,71.12
2023-02-13T15:47:14.474Z,71.20
2023-02-13T15:49:46.664Z,71.20
2023-02-13T15:52:36.583Z,71.44
2023-02-13T15:55:04.544Z,71.78
2023-02-13T15:57:33.027Z,71.60
2023-02-13T16:00:01.603Z,71.48
2023-02-13T16:02:45.590Z,71.65
2023-02-13T16:05:15.229Z,71.48
2023-02-13T16:07:58.936Z,71.47
2023-02-13T16:10:32.682Z,71.60
2023-02-13T16:13:04.636Z,71.44
2023-02-13T16:15:37.084Z,71.17
2023-02-13T16:18:06.364Z,71.11
2023-02-13T16:20:35.059Z,71.12
2023-02-13T16:23:07.884Z,70.79
2023-02-13T16:25:40.700Z,70.83
2023-02-13T16:28:21.255Z,71.08
2023-02-13T16:31:18.082Z,70.81
2023-02-13T16:33:46.102Z,70.89
2023-02-13T16:36:12.987Z,70.78
2023-02-13T16:38:50.482Z,70.46
2023-02-13T16:41:32.225Z,71.17
2023-02-13T16:44:21.433Z,70.66
2023-02-13T16:46:54.067Z,70.06
2023-02-13T16:49:24.663Z,70.62
2023-02-13T16:51:56.962Z,70.23
2023-02-13T16:54:34.112Z,70.20
2023-02-13T16:57:25.604Z,70.06
2023-02-13T17:00:22.633Z,70.39
2023-02-13T17:02:50.891Z,70.35
2023-02-13T17:05:29.442Z,69.98
2023-02-13T17:07:58.755Z,69.73
2023-02-13T17:10:35.967Z,70.06
2023-02-13T17:13:13.354Z,69.67
2023-02-13T17:15:47.652Z,68.92
2023-02-13T17:18:14.718Z,68.82
2023-02-13T17:20:45.675Z,69.28
2023-02-13T17:23:24.892Z,68.46
2023-02-13T17:25:53.985Z,68.40
2023-02-13T17:28:27.836Z,68.03
2023-02-13T17:30:58.709Z,67.91
2023-02-13T17:33:29.602Z,67.68
2023-02-13T17:35:57.226Z,67.99
2023-02-13T17:38:24.647Z,68.04
2023-02-13T17:40:51.948Z,67.74
2023-02-13T17:43:20.779Z,67.61
2023-02-13T17:45:49.809Z,67.38
2023-02-13T17:48:17.433Z,67.58
2023-02-13T17:50:44.590Z,67.44
2023-02-13T17:53:27.683Z,67.30
2023-02-13T17:55:54.793Z,67.13
2023-02-13T17:58:22.197Z,67.17
2023-02-13T18:00:49.316Z,67.32
2023-02-13T18:03:16.331Z,67.26
2023-02-13T18:05:43.377Z,67.12
2023-02-13T18:08:10.514Z,67.56
2023-02-13T18:10:39.508Z,67.59
2023-02-13T18:13:07.227Z,67.22
2023-02-13T18:15:39.424Z,67.44
2023-02-13T18:18:06.618Z,67.74
2023-02-13T18:20:33.772Z,67.64
2023-02-13T18:23:00.847Z,67.26
2023-02-13T18:25:29.156Z,67.53
2023-02-13T18:27:56.375Z,67.20
2023-02-13T18:30:23.719Z,67.43
2023-02-13T18:32:55.664Z,67.20
2023-02-13T18:35:23.755Z,67.34
2023-02-13T18:37:51.697Z,67.01
2023-02-13T18:40:18.995Z,67.29
2023-02-13T18:42:46.259Z,67.19
2023-02-13T18:45:13.444Z,66.52
2023-02-13T18:47:40.484Z,66.79
2023-02-13T18:50:09.109Z,66.86
2023-02-13T18:52:36.651Z,67.16
2023-02-13T18:55:07.058Z,66.60
2023-02-13T18:57:34.859Z,67.12
2023-02-13T19:00:02.513Z,67.65
2023-02-13T19:02:32.387Z,67.47
2023-02-13T19:04:59.417Z,67.42
2023-02-13T19:07:26.440Z,67.83
2023-02-13T19:09:53.506Z,67.87
2023-02-13T19:12:20.508Z,68.13
2023-02-13T19:14:48.166Z,68.12
2023-02-13T19:17:15.208Z,68.22
2023-02-13T19:19:45.472Z,68.08
2023-02-13T19:22:12.492Z,67.77
2023-02-13T19:24:39.523Z,67.60
2023-02-13T19:27:06.525Z,68.21
2023-02-13T19:29:33.595Z,68.24
2023-02-13T19:32:00.770Z,68.56
2023-02-13T19:34:27.809Z,68.30
2023-02-13T19:36:54.808Z,68.19
2023-02-13T19:39:21.811Z,68.33
2023-02-13T19:41:48.818Z,68.14
2023-02-13T19:44:16.062Z,68.53
2023-02-13T19:46:43.458Z,68.33
2023-02-13T19:49:11.795Z,68.82
2023-02-13T19:51:38.897Z,68.45
2023-02-13T19:54:08.737Z,68.21
2023-02-13T19:56:38.572Z,67.94
2023-02-13T19:59:10.543Z,68.58
2023-02-13T20:01:37.856Z,68.18
2023-02-13T20:04:04.949Z,68.23
2023-02-13T20:06:38.706Z,68.08
2023-02-13T20:09:10.383Z,68.05
2023-02-13T20:11:38.159Z,68.61
2023-02-13T20:14:05.505Z,68.47
2023-02-13T20:16:35.593Z,68.21
2023-02-13T20:19:09.634Z,68.31
2023-02-13T20:21:37.832Z,68.04
2023-02-13T20:24:05.819Z,67.86
2023-02-13T20:26:34.119Z,68.20
2023-02-13T20:29:01.681Z,68.65
2023-02-13T20:31:30.140Z,68.58
2023-02-13T20:33:58.491Z,68.21
2023-02-13T20:36:31.284Z,67.82
2023-02-13T20:39:02.293Z,68.03
2023-02-13T20:41:33.480Z,68.59
2023-02-13T20:44:04.145Z,68.32
2023-02-13T20:46:36.871Z,68.62
2023-02-13T20:49:04.663Z,68.61
2023-02-13T20:51:31.803Z,68.68
2023-02-13T20:54:00.429Z,69.02
2023-02-13T20:56:29.002Z,68.97
2023-02-13T20:58:59.183Z,68.64
2023-02-13T21:01:40.521Z,68.98
2023-02-13T21:04:11.285Z,69.55
2023-02-13T21:06:40.088Z,69.05
2023-02-13T21:09:09.535Z,68.50
2023-02-13T21:11:40.062Z,69.09
2023-02-13T21:14:07.804Z,69.32
2023-02-13T21:16:38.875Z,69.37
2023-02-13T21:19:16.434Z,69.83
2023-02-13T21:21:44.943Z,69.74
2023-02-13T21:24:16.818Z,69.90
2023-02-13T21:26:45.854Z,69.96
2023-02-13T21:29:13.346Z,69.74
2023-02-13T21:31:49.144Z,69.72
2023-02-13T21:34:18.028Z,70.15
2023-02-13T21:36:46.082Z,70.16
2023-02-13T21:39:14.759Z,70.09
2023-02-13T21:41:46.658Z,70.19
2023-02-13T21:44:15.898Z,70.18
2023-02-13T21:46:44.980Z,70.52
2023-02-13T21:49:18.276Z,70.40
2023-02-13T21:51:46.109Z,70.10
2023-02-13T21:54:13.926Z,70.34
2023-02-13T21:56:43.114Z,70.58
2023-02-13T21:59:15.872Z,70.46
2023-02-13T22:01:43.586Z,70.65
2023-02-13T22:04:11.191Z,70.84
2023-02-13T22:06:40.556Z,70.61
2023-02-13T22:09:14.232Z,70.67
2023-02-13T22:11:42.730Z,70.70
2023-02-13T22:14:17.206Z,70.78
2023-02-13T22:16:46.149Z,70.98
2023-02-13T22:19:16.071Z,71.03
2023-02-13T22:21:43.992Z,70.82
2023-02-13T22:24:11.773Z,70.71
2023-02-13T22:26:42.747Z,71.23
2023-02-13T22:29:14.076Z,71.30
2023-02-13T22:31:42.319Z,71.50
2023-02-13T22:34:13.650Z,71.42
2023-02-13T22:36:41.983Z,71.36
2023-02-13T22:39:10.754Z,71.41
2023-02-13T22:41:38.504Z,71.59
2023-02-13T22:44:05.947Z,71.79
2023-02-13T22:46:34.655Z,72.00
2023-02-13T22:49:02.425Z,72.34
2023-02-13T22:51:33.491Z,72.56
2023-02-13T22:54:01.570Z,72.71
2023-02-13T22:56:30.497Z,72.32
2023-02-13T22:58:58.551Z,72.53
2023-02-13T23:01:27.786Z,72.74
2023-02-13T23:03:56.399Z,72.60
2023-02-13T23:06:24.258Z,71.86
2023-02-13T23:08:54.756Z,72.36
2023-02-13T23:11:46.602Z,72.49
2023-02-13T23:14:15.873Z,72.83
2023-02-13T23:17:02.160Z,72.72
2023-02-13T23:19:30.231Z,72.68
2023-02-13T23:21:58.155Z,72.77
2023-02-13T23:24:25.337Z,72.86
2023-02-13T23:26:52.352Z,72.82
2023-02-13T23:29:20.108Z,72.80
2023-02-13T23:31:47.382Z,72.81
2023-02-13T23:34:14.524Z,72.97
2023-02-13T23:36:41.619Z,73.18
2023-02-13T23:39:08.992Z,73.13
2023-02-13T23:41:36.116Z,73.21
2023-02-13T23:44:03.438Z,73.44
2023-02-13T23:46:30.674Z,73.28
2023-02-13T23:48:57.800Z,73.38
2023-02-13T23:51:25.760Z,73.29
2023-02-13T23:53:56.353Z,73.15
2023-02-13T23:56:25.175Z,73.57
2023-02-13T23:58:53.211Z,73.05
